Time;durP1;ratioP1;P1;durP2;ratioP2;P2;SDS_P1;SDS_P2;PMS_P1;PMS_P2;Temp;Humidity;BMP_temperature;BMP_pressure;BME280_temperature;BME280_humidity;BME280_pressure;Samples;Min_cycle;Max_cycle;Signal;HPM_P1;HPM_P2
2022/12/17 13:08:22;;;;;;;;;;;1.50;99.90;;;;;;5046861;28;19921;-70
2022/12/17 13:10:49;;;;;;;;;;;1.40;99.90;;;;;;5054907;28;19921;-70
2022/12/17 13:13:21;;;;;;;;;;;1.30;99.90;;;;;;5056134;28;19944;-73
2022/12/17 13:15:48;;;;;;;;;;;1.10;99.90;;;;;;5056684;28;19921;-75
2022/12/17 13:18:20;;;;;;;;;;;1.00;99.90;;;;;;5056600;28;19928;-74
2022/12/17 13:20:58;;;;;;;;;;;0.70;99.90;;;;;;5056251;28;19952;-75
2022/12/17 13:23:27;;;;;;;;;;;0.50;99.90;;;;;;5055437;28;19922;-73
2022/12/17 13:26:13;;;;;;;;;;;0.20;99.90;;;;;;5054827;28;19928;-71
2022/12/17 13:28:40;;;;;;;;;;;0.00;99.90;;;;;;5054799;28;19980;-71
2022/12/17 13:31:15;;;;;;;;;;;-0.30;99.90;;;;;;5055326;28;19932;-72
2022/12/17 13:33:46;;;;;;;;;;;-0.50;99.90;;;;;;5054173;28;19928;-73
2022/12/17 13:36:17;;;;;;;;;;;-0.70;99.90;;;;;;5052279;28;19925;-71
2022/12/17 13:38:48;;;;;;;;;;;-0.90;99.90;;;;;;5051391;28;19921;-71
2022/12/17 13:41:16;;;;;;;;;;;-1.00;99.90;;;;;;5055136;28;19944;-72
2022/12/17 13:43:44;;;;;;;;;;;-1.10;99.90;;;;;;5055133;28;19921;-73
2022/12/17 13:46:18;;;;;;;;;;;-1.20;99.90;;;;;;5055022;28;19948;-73
2022/12/17 13:48:51;;;;;;;;;;;-1.30;99.90;;;;;;5053571;28;19928;-71
2022/12/17 13:51:20;;;;;;;;;;;-1.50;99.90;;;;;;5054887;28;19928;-72
2022/12/17 13:53:51;;;;;;;;;;;-1.60;99.90;;;;;;5055261;28;19944;-70
2022/12/17 13:56:22;;;;;;;;;;;-1.70;99.90;;;;;;5053730;28;19921;-73
2022/12/17 13:58:51;;;;;;;;;;;-1.70;99.90;;;;;;5053725;28;19921;-72
2022/12/17 14:01:17;;;;;;;;;;;-1.80;99.90;;;;;;5059704;28;20207;-70
2022/12/17 14:03:49;;;;;;;;;;;-1.80;99.90;;;;;;5067271;28;19921;-72
2022/12/17 14:06:15;;;;;;;;;;;-1.80;99.90;;;;;;5054408;28;20200;-70
2022/12/17 14:08:44;;;;;;;;;;;-1.80;99.90;;;;;;5055111;28;19952;-70
2022/12/17 14:13:56;;;;;;;;;;;-1.80;99.90;;;;;;5062716;28;19939;-69
2022/12/17 14:16:22;;;;;;;;;;;-1.80;99.90;;;;;;5054778;28;19955;-70
2022/12/17 14:18:52;;;;;;;;;;;-1.90;99.90;;;;;;5054241;28;20201;-70
2022/12/17 14:21:19;;;;;;;;;;;-1.90;99.90;;;;;;5055439;28;19944;-71
2022/12/17 14:23:48;;;;;;;;;;;-1.90;99.90;;;;;;5059855;28;19952;-72
2022/12/17 14:26:14;;;;;;;;;;;-2.00;99.90;;;;;;5064265;28;19948;-71
2022/12/17 14:28:45;;;;;;;;;;;-2.00;99.90;;;;;;5075522;28;19966;-71
2022/12/17 14:31:17;;;;;;;;;;;-2.10;99.90;;;;;;5067852;28;19922;-69
2022/12/17 14:33:44;;;;;;;;;;;-2.00;99.90;;;;;;5064457;28;19988;-69
2022/12/17 14:36:18;;;;;;;;;;;-2.10;99.90;;;;;;5063674;28;19921;-70
2022/12/17 14:38:51;;;;;;;;;;;-2.20;99.90;;;;;;5064046;28;19963;-71
2022/12/17 14:44:02;;;;;;;;;;;-2.30;99.90;;;;;;5043946;28;19955;-68
2022/12/17 14:46:30;;;;;;;;;;;-2.30;99.90;;;;;;5043434;28;19948;-70
2022/12/17 14:49:00;;;;;;;;;;;-2.30;99.90;;;;;;5043633;28;19952;-68
2022/12/17 14:51:28;;;;;;;;;;;-2.40;99.90;;;;;;5043958;28;19921;-69
2022/12/17 14:54:06;;;;;;;;;;;-2.40;99.90;;;;;;5042538;28;19983;-68
2022/12/17 14:56:32;;;;;;;;;;;-2.40;99.90;;;;;;5038849;28;19922;-69
2022/12/17 14:58:59;;;;;;;;;;;-2.50;99.90;;;;;;5044141;28;19963;-69
2022/12/17 15:01:26;;;;;;;;;;;-2.50;99.90;;;;;;5043633;28;19928;-69
2022/12/17 15:03:52;;;;;;;;;;;-2.60;99.90;;;;;;5043996;28;20163;-69
2022/12/17 15:06:19;;;;;;;;;;;-2.60;99.90;;;;;;5043019;28;20183;-69
2022/12/17 15:08:54;;;;;;;;;;;-2.70;99.90;;;;;;5041500;28;19921;-70
2022/12/17 15:11:22;;;;;;;;;;;-2.80;99.90;;;;;;5044081;28;19968;-70
2022/12/17 15:14:11;;;;;;;;;;;-2.80;99.90;;;;;;5050217;28;19921;-69
2022/12/17 15:16:38;;;;;;;;;;;-2.80;99.90;;;;;;5062858;28;20170;-70
2022/12/17 15:19:05;;;;;;;;;;;-2.80;99.90;;;;;;5065317;28;19920;-70
2022/12/17 15:21:31;;;;;;;;;;;-2.80;99.90;;;;;;5067231;28;19921;-70
2022/12/17 15:23:58;;;;;;;;;;;-2.90;99.90;;;;;;5066811;28;19983;-70
2022/12/17 15:26:26;;;;;;;;;;;-3.00;99.90;;;;;;5057535;28;19928;-70
2022/12/17 15:28:53;;;;;;;;;;;-3.00;99.90;;;;;;5047297;28;20004;-70
2022/12/17 15:31:20;;;;;;;;;;;-3.10;99.90;;;;;;5046908;28;19928;-68
2022/12/17 15:33:46;;;;;;;;;;;-3.10;99.90;;;;;;5046885;28;19984;-70
2022/12/17 15:36:13;;;;;;;;;;;-3.20;99.90;;;;;;5046340;28;19956;-69
2022/12/17 15:38:40;;;;;;;;;;;-3.30;99.90;;;;;;5046295;28;20232;-68
2022/12/17 15:43:49;;;;;;;;;;;-3.50;99.90;;;;;;5045711;28;19917;-69
2022/12/17 15:46:16;;;;;;;;;;;-3.60;99.90;;;;;;5046121;28;20243;-69
2022/12/17 15:48:42;;;;;;;;;;;-3.60;99.90;;;;;;5046514;28;19988;-70
2022/12/17 15:51:09;;;;;;;;;;;-3.60;99.90;;;;;;5046744;28;19963;-70
2022/12/17 15:53:36;;;;;;;;;;;-3.70;99.90;;;;;;5046679;28;19921;-70
2022/12/17 15:56:03;;;;;;;;;;;-3.80;99.90;;;;;;5046207;28;20410;-69
2022/12/17 15:58:30;;;;;;;;;;;-3.80;99.90;;;;;;5046294;28;19921;-70
2022/12/17 16:00:58;;;;;;;;;;;-3.90;99.90;;;;;;5046674;28;20254;-70
2022/12/17 16:03:24;;;;;;;;;;;-4.00;99.90;;;;;;5046922;28;19989;-70
2022/12/17 16:05:52;;;;;;;;;;;-4.00;99.90;;;;;;5046067;28;19928;-70
2022/12/17 16:08:18;;;;;;;;;;;-4.10;99.90;;;;;;5045874;28;19921;-69
2022/12/17 16:10:45;;;;;;;;;;;-4.20;99.90;;;;;;5033666;28;20604;-69
2022/12/17 16:13:49;;;;;;;;;;;-4.20;99.90;;;;;;5044552;28;20108;-71
2022/12/17 16:16:17;;;;;;;;;;;-4.30;99.90;;;;;;5025828;28;20102;-70
2022/12/17 16:18:43;;;;;;;;;;;-4.40;99.90;;;;;;5026394;28;19984;-69
2022/12/17 16:21:10;;;;;;;;;;;-4.50;99.90;;;;;;5026332;28;19929;-69
2022/12/17 16:23:37;;;;;;;;;;;-4.50;99.90;;;;;;5026091;28;20228;-71
2022/12/17 16:26:04;;;;;;;;;;;-4.50;99.90;;;;;;5025821;28;19972;-68
2022/12/17 16:28:31;;;;;;;;;;;-4.60;99.90;;;;;;5028624;28;20266;-68
2022/12/17 16:31:07;;;;;;;;;;;-4.60;99.90;;;;;;5045191;28;19953;-70
2022/12/17 16:33:35;;;;;;;;;;;-4.70;99.90;;;;;;5046293;28;19928;-68
2022/12/17 16:36:15;;;;;;;;;;;-4.70;99.90;;;;;;5043101;28;19929;-68
2022/12/17 16:38:43;;;;;;;;;;;-4.80;99.90;;;;;;5046013;28;19921;-68
2022/12/17 16:41:10;;;;;;;;;;;-4.80;99.90;;;;;;5045662;28;19921;-68
2022/12/17 16:43:36;;;;;;;;;;;-4.90;99.90;;;;;;5045652;28;20138;-69
2022/12/17 16:46:03;;;;;;;;;;;-4.90;99.90;;;;;;5032797;28;20251;-68
2022/12/17 16:48:35;;;;;;;;;;;-5.00;99.90;;;;;;5025960;28;19964;-67
2022/12/17 16:51:15;;;;;;;;;;;-5.00;99.90;;;;;;5026095;28;19928;-68
2022/12/17 16:53:41;;;;;;;;;;;-5.10;99.90;;;;;;5025772;28;19928;-68
2022/12/17 16:56:08;;;;;;;;;;;-5.20;99.90;;;;;;5025294;28;19965;-68
2022/12/17 16:58:35;;;;;;;;;;;-5.20;99.90;;;;;;5025839;28;20196;-68
2022/12/17 17:01:01;;;;;;;;;;;-5.30;99.90;;;;;;5030457;28;20179;-68
2022/12/17 17:03:28;;;;;;;;;;;-5.40;99.90;;;;;;5045604;28;19921;-68
2022/12/17 17:05:59;;;;;;;;;;;-5.40;99.90;;;;;;5043904;28;20224;-69
2022/12/17 17:08:27;;;;;;;;;;;-5.50;99.90;;;;;;5045071;28;19960;-68
2022/12/17 17:10:54;;;;;;;;;;;-5.50;99.90;;;;;;5039635;28;20204;-68
2022/12/17 17:13:21;;;;;;;;;;;-5.60;99.90;;;;;;5050109;28;20153;-69
2022/12/17 17:15:47;;;;;;;;;;;-5.70;99.90;;;;;;5044683;28;19925;-67
2022/12/17 17:18:14;;;;;;;;;;;-5.70;99.90;;;;;;5045330;28;19980;-68
2022/12/17 17:20:41;;;;;;;;;;;-5.80;99.90;;;;;;5043916;28;19921;-69
2022/12/17 17:23:07;;;;;;;;;;;-5.80;99.90;;;;;;5044719;28;20185;-70
2022/12/17 17:25:36;;;;;;;;;;;-5.80;99.90;;;;;;5044590;28;19944;-69
2022/12/17 17:28:03;;;;;;;;;;;-5.90;99.90;;;;;;5047240;28;20291;-69
2022/12/17 17:30:30;;;;;;;;;;;-6.00;99.90;;;;;;5028883;28;20170;-69
2022/12/17 17:32:57;;;;;;;;;;;-6.10;99.90;;;;;;5034459;28;20169;-69
2022/12/17 17:35:23;;;;;;;;;;;-6.20;99.90;;;;;;5044888;28;20153;-70
2022/12/17 17:37:50;;;;;;;;;;;-6.30;99.90;;;;;;5043803;28;19944;-70
2022/12/17 17:40:17;;;;;;;;;;;-6.30;99.90;;;;;;5044152;28;19959;-69
2022/12/17 17:42:45;;;;;;;;;;;-6.30;99.90;;;;;;5044039;28;20109;-70
2022/12/17 17:45:11;;;;;;;;;;;-6.40;99.90;;;;;;5039245;28;19953;-69
2022/12/17 17:47:38;;;;;;;;;;;-6.40;99.90;;;;;;5024302;28;19980;-70
2022/12/17 17:50:05;;;;;;;;;;;-6.40;99.90;;;;;;5034287;28;19980;-70
2022/12/17 17:52:32;;;;;;;;;;;-6.40;99.90;;;;;;5044209;28;19963;-69
2022/12/17 17:54:58;;;;;;;;;;;-6.40;99.90;;;;;;5043886;28;19921;-70
2022/12/17 17:57:25;;;;;;;;;;;-6.50;99.90;;;;;;5043264;28;19956;-69
2022/12/17 17:59:53;;;;;;;;;;;-6.50;99.90;;;;;;5043410;28;19956;-69
2022/12/17 18:02:20;;;;;;;;;;;-6.60;99.90;;;;;;5044109;28;19921;-69
2022/12/17 18:04:47;;;;;;;;;;;-6.60;99.90;;;;;;5043938;28;20053;-69
2022/12/17 18:07:13;;;;;;;;;;;-6.70;99.90;;;;;;5043834;28;19959;-69
2022/12/17 18:09:40;;;;;;;;;;;-6.80;99.90;;;;;;5041613;28;19957;-69
2022/12/17 18:14:47;;;;;;;;;;;-6.90;99.90;;;;;;5054717;28;19917;-69
2022/12/17 18:17:16;;;;;;;;;;;-6.90;99.90;;;;;;5063793;28;19956;-69
2022/12/17 18:19:42;;;;;;;;;;;-7.00;99.90;;;;;;5063491;28;19942;-69
2022/12/17 18:22:12;;;;;;;;;;;-7.00;99.90;;;;;;5064177;28;19920;-69
2022/12/17 18:24:39;;;;;;;;;;;-7.00;99.90;;;;;;5064609;28;19921;-69
2022/12/17 18:27:05;;;;;;;;;;;-7.00;99.90;;;;;;5063452;28;19963;-69
2022/12/17 18:29:38;;;;;;;;;;;-7.00;99.90;;;;;;5061515;28;20212;-70
2022/12/17 18:32:05;;;;;;;;;;;-7.10;99.90;;;;;;5064123;28;19944;-70
2022/12/17 18:34:34;;;;;;;;;;;-7.10;99.90;;;;;;5063546;28;20212;-70
2022/12/17 18:37:01;;;;;;;;;;;-7.20;99.90;;;;;;5063343;28;19959;-70
2022/12/17 18:39:27;;;;;;;;;;;-7.20;99.90;;;;;;5064480;28;19956;-69
2022/12/17 18:44:49;;;;;;;;;;;-7.30;99.90;;;;;;5002810;28;19918;-70
2022/12/17 18:47:17;;;;;;;;;;;-7.30;99.90;;;;;;5033005;28;19921;-70
2022/12/17 18:49:45;;;;;;;;;;;-7.40;99.90;;;;;;5043824;28;19921;-69
2022/12/17 18:52:12;;;;;;;;;;;-7.50;99.90;;;;;;5043925;28;19921;-69
2022/12/17 18:54:39;;;;;;;;;;;-7.50;99.90;;;;;;5047553;28;19921;-69
2022/12/17 18:57:06;;;;;;;;;;;-7.50;99.90;;;;;;5046758;28;19924;-71
2022/12/17 18:59:33;;;;;;;;;;;-7.60;99.90;;;;;;5047303;28;19921;-70
2022/12/17 19:02:00;;;;;;;;;;;-7.60;99.90;;;;;;5047488;28;19921;-71
2022/12/17 19:04:27;;;;;;;;;;;-7.70;99.90;;;;;;5027556;28;19927;-69
2022/12/17 19:06:55;;;;;;;;;;;-7.80;99.90;;;;;;5026912;28;19960;-70
2022/12/17 19:09:33;;;;;;;;;;;-7.80;99.90;;;;;;5028432;28;19928;-72
2022/12/17 19:11:59;;;;;;;;;;;-7.90;99.90;;;;;;5046682;28;19948;-71
2022/12/17 19:14:26;;;;;;;;;;;-7.90;99.90;;;;;;5055441;28;19921;-72
2022/12/17 19:16:54;;;;;;;;;;;-7.90;99.90;;;;;;5046115;28;19944;-71
2022/12/17 19:19:21;;;;;;;;;;;-7.90;99.90;;;;;;5044159;28;20064;-68
2022/12/17 19:21:48;;;;;;;;;;;-7.90;99.90;;;;;;5057329;28;19954;-69
2022/12/17 19:24:17;;;;;;;;;;;-7.90;99.90;;;;;;5049159;28;19928;-69
2022/12/17 19:26:45;;;;;;;;;;;-7.90;99.90;;;;;;5044479;28;19991;-69
2022/12/17 19:29:12;;;;;;;;;;;-8.00;99.90;;;;;;5046862;28;19921;-69
2022/12/17 19:31:39;;;;;;;;;;;-8.10;99.90;;;;;;5047009;28;20101;-69
2022/12/17 19:34:07;;;;;;;;;;;-8.10;99.90;;;;;;5046674;28;19981;-69
2022/12/17 19:36:34;;;;;;;;;;;-8.10;99.90;;;;;;5046016;28;20260;-69
2022/12/17 19:39:04;;;;;;;;;;;-8.20;99.90;;;;;;5044175;28;20209;-69
2022/12/17 19:41:33;;;;;;;;;;;-8.20;99.90;;;;;;5046841;28;19925;-69
2022/12/17 19:44:01;;;;;;;;;;;-8.20;99.90;;;;;;5044456;28;19928;-69
2022/12/17 19:46:28;;;;;;;;;;;-8.30;99.90;;;;;;5045215;28;19995;-69
2022/12/17 19:48:54;;;;;;;;;;;-8.30;99.90;;;;;;5041481;28;19952;-70
2022/12/17 19:51:22;;;;;;;;;;;-8.40;99.90;;;;;;5046418;28;19956;-70
2022/12/17 19:53:49;;;;;;;;;;;-8.40;99.90;;;;;;5040025;28;19921;-70
2022/12/17 19:56:17;;;;;;;;;;;-8.40;99.90;;;;;;5031499;28;19921;-70
2022/12/17 19:58:45;;;;;;;;;;;-8.40;99.90;;;;;;5044683;28;19988;-70
2022/12/17 20:01:13;;;;;;;;;;;-8.50;99.90;;;;;;5038435;28;19936;-69
2022/12/17 20:03:41;;;;;;;;;;;-8.50;99.90;;;;;;5037630;28;19921;-70
2022/12/17 20:06:08;;;;;;;;;;;-8.60;99.90;;;;;;5045402;28;20228;-69
2022/12/17 20:08:37;;;;;;;;;;;-8.60;99.90;;;;;;5037744;28;19928;-71
2022/12/17 20:11:31;;;;;;;;;;;-8.70;99.90;;;;;;5053237;28;19920;-69
2022/12/17 20:13:54;;;;;;;;;;;-8.70;99.90;;;;;;5054829;28;19921;-69
2022/12/17 20:16:20;;;;;;;;;;;-8.80;99.90;;;;;;5065703;28;19963;-69
2022/12/17 20:18:47;;;;;;;;;;;-8.70;99.90;;;;;;5046215;28;19960;-72
2022/12/17 20:21:14;;;;;;;;;;;-8.70;99.90;;;;;;5046487;28;20556;-69
2022/12/17 20:23:40;;;;;;;;;;;-8.70;99.90;;;;;;5045701;28;19921;-69
2022/12/17 20:26:08;;;;;;;;;;;-8.70;99.90;;;;;;5042514;28;19948;-69
2022/12/17 20:28:35;;;;;;;;;;;-8.80;99.90;;;;;;5046103;28;19928;-70
2022/12/17 20:31:04;;;;;;;;;;;-8.80;99.90;;;;;;5046061;28;20157;-70
2022/12/17 20:33:30;;;;;;;;;;;-8.80;99.90;;;;;;5045772;28;20167;-71
2022/12/17 20:36:04;;;;;;;;;;;-8.90;99.90;;;;;;5043647;28;19927;-71
2022/12/17 20:38:31;;;;;;;;;;;-8.90;99.90;;;;;;5045937;28;19927;-71
2022/12/17 20:40:58;;;;;;;;;;;-8.90;99.90;;;;;;5045942;28;19921;-71
2022/12/17 20:43:24;;;;;;;;;;;-8.90;99.90;;;;;;5043388;28;19993;-71
2022/12/17 20:45:54;;;;;;;;;;;-8.50;99.90;;;;;;5035350;28;19996;-71
2022/12/17 20:48:22;;;;;;;;;;;-9.00;99.90;;;;;;5044888;28;19988;-70
2022/12/17 20:50:49;;;;;;;;;;;-9.00;99.90;;;;;;5045618;28;19921;-71
2022/12/17 20:53:17;;;;;;;;;;;-9.00;99.90;;;;;;5030338;28;19921;-70
2022/12/17 20:55:43;;;;;;;;;;;-9.00;99.90;;;;;;5041605;28;19929;-70
2022/12/17 20:58:12;;;;;;;;;;;-9.00;99.90;;;;;;5040702;28;20004;-70
2022/12/17 21:00:38;;;;;;;;;;;-9.10;99.90;;;;;;5025593;28;19953;-71
2022/12/17 21:03:05;;;;;;;;;;;-9.10;99.90;;;;;;5025563;28;19948;-71
2022/12/17 21:05:34;;;;;;;;;;;-9.10;99.90;;;;;;5033672;28;20148;-72
2022/12/17 21:08:01;;;;;;;;;;;-9.10;99.90;;;;;;5051046;28;19980;-70
2022/12/17 21:10:28;;;;;;;;;;;-9.10;99.90;;;;;;5062824;28;19948;-71
2022/12/17 21:15:38;;;;;;;;;;;-9.20;99.90;;;;;;5059387;28;19943;-70
2022/12/17 21:18:05;;;;;;;;;;;-9.20;99.90;;;;;;5054208;28;19921;-71
2022/12/17 21:20:32;;;;;;;;;;;-9.30;99.90;;;;;;5062021;28;19960;-71
2022/12/17 21:23:00;;;;;;;;;;;-9.30;99.90;;;;;;5075153;28;19963;-70
2022/12/17 21:25:26;;;;;;;;;;;-9.30;99.90;;;;;;5076821;28;19984;-70
2022/12/17 21:27:53;;;;;;;;;;;-9.40;99.90;;;;;;5059284;28;19995;-70
2022/12/17 21:30:20;;;;;;;;;;;-9.40;99.90;;;;;;5054993;28;19977;-70
2022/12/17 21:32:46;;;;;;;;;;;-9.40;99.90;;;;;;5046692;28;19952;-70
2022/12/17 21:35:14;;;;;;;;;;;-9.40;99.90;;;;;;5054255;28;19921;-69
2022/12/17 21:37:53;;;;;;;;;;;-9.40;99.90;;;;;;5053570;28;19944;-70
2022/12/17 21:40:21;;;;;;;;;;;-9.40;99.90;;;;;;5035974;28;20192;-71
2022/12/17 21:43:03;;;;;;;;;;;-9.50;99.90;;;;;;5053211;28;19925;-69
2022/12/17 21:45:34;;;;;;;;;;;-9.60;99.90;;;;;;5042112;28;19925;-70
2022/12/17 21:48:00;;;;;;;;;;;-9.70;99.90;;;;;;5053718;28;19921;-70
2022/12/17 21:50:27;;;;;;;;;;;-9.80;99.90;;;;;;5054623;28;20244;-70
2022/12/17 21:52:54;;;;;;;;;;;-9.80;99.90;;;;;;5055942;28;20185;-68
2022/12/17 21:55:22;;;;;;;;;;;-9.80;99.90;;;;;;5055623;28;19955;-70
2022/12/17 21:57:48;;;;;;;;;;;-9.80;99.90;;;;;;5054707;28;19944;-70
2022/12/17 22:00:15;;;;;;;;;;;-9.80;99.90;;;;;;5054533;28;19963;-72
2022/12/17 22:02:42;;;;;;;;;;;-9.80;99.90;;;;;;5048200;28;19952;-70
2022/12/17 22:05:09;;;;;;;;;;;-9.80;99.90;;;;;;5043385;28;19975;-71
2022/12/17 22:07:36;;;;;;;;;;;-9.90;99.90;;;;;;5043247;28;19953;-71
2022/12/17 22:10:02;;;;;;;;;;;-9.90;99.90;;;;;;5045908;28;20212;-71
2022/12/17 22:15:15;;;;;;;;;;;-10.00;99.90;;;;;;5048049;28;19943;-74
2022/12/17 22:17:42;;;;;;;;;;;-10.10;99.90;;;;;;5062938;28;19980;-70
2022/12/17 22:20:09;;;;;;;;;;;-10.10;99.90;;;;;;5063338;28;19927;-70
2022/12/17 22:22:36;;;;;;;;;;;-10.20;99.90;;;;;;5063856;28;20278;-70
2022/12/17 22:25:02;;;;;;;;;;;-10.20;99.90;;;;;;5064038;28;19921;-71
2022/12/17 22:27:30;;;;;;;;;;;-10.20;99.90;;;;;;5051763;28;19979;-71
2022/12/17 22:33:01;;;;;;;;;;;-10.20;99.90;;;;;;5043517;28;19953;-70
2022/12/17 22:35:28;;;;;;;;;;;-10.20;99.90;;;;;;5043159;28;19980;-71
2022/12/17 22:37:55;;;;;;;;;;;-10.20;99.90;;;;;;5042774;28;19928;-70
2022/12/17 22:40:21;;;;;;;;;;;-10.20;99.90;;;;;;5043558;28;20160;-71
2022/12/17 22:45:37;;;;;;;;;;;-10.30;99.90;;;;;;5043168;28;19960;-74
2022/12/17 22:48:04;;;;;;;;;;;-10.30;99.90;;;;;;5042998;28;19968;-70
2022/12/17 22:50:30;;;;;;;;;;;-10.30;99.90;;;;;;5043675;28;19952;-69
2022/12/17 22:52:57;;;;;;;;;;;-10.40;99.90;;;;;;5043543;28;19992;-70
2022/12/17 22:55:23;;;;;;;;;;;-10.40;99.90;;;;;;5043155;28;19963;-69
2022/12/17 22:57:52;;;;;;;;;;;-10.40;99.90;;;;;;5042665;28;19959;-72
2022/12/17 23:00:21;;;;;;;;;;;-10.40;99.90;;;;;;5043012;28;19944;-73
2022/12/17 23:02:47;;;;;;;;;;;-10.50;99.90;;;;;;5041977;28;19971;-69
2022/12/17 23:05:14;;;;;;;;;;;-10.50;99.90;;;;;;5043273;28;19928;-70
2022/12/17 23:07:41;;;;;;;;;;;-10.40;99.90;;;;;;5042616;28;19953;-71
2022/12/17 23:10:08;;;;;;;;;;;-10.40;99.90;;;;;;5043338;28;19952;-71
2022/12/17 23:12:50;;;;;;;;;;;-10.40;99.90;;;;;;5044371;28;20106;-71
2022/12/17 23:15:19;;;;;;;;;;;-10.40;99.90;;;;;;5044250;28;19927;-71
2022/12/17 23:17:46;;;;;;;;;;;-10.40;99.90;;;;;;5042851;28;20276;-69
2022/12/17 23:20:13;;;;;;;;;;;-10.40;99.90;;;;;;5043156;28;19921;-71
2022/12/17 23:22:39;;;;;;;;;;;-10.50;99.90;;;;;;5044136;28;19980;-69
2022/12/17 23:25:06;;;;;;;;;;;-10.50;99.90;;;;;;5043897;28;19925;-70
2022/12/17 23:27:34;;;;;;;;;;;-10.60;99.90;;;;;;5043182;28;19921;-68
2022/12/17 23:30:01;;;;;;;;;;;-10.40;99.90;;;;;;5044226;28;20090;-70
2022/12/17 23:32:29;;;;;;;;;;;-10.50;99.90;;;;;;5039460;28;20128;-70
2022/12/17 23:34:56;;;;;;;;;;;-10.50;99.90;;;;;;5026562;28;19921;-69
2022/12/17 23:37:22;;;;;;;;;;;-10.60;99.90;;;;;;5030283;28;20229;-71
2022/12/17 23:39:49;;;;;;;;;;;-10.60;99.90;;;;;;5029326;28;20162;-70
2022/12/17 23:42:16;;;;;;;;;;;-10.60;99.90;;;;;;5044917;28;19928;-70
2022/12/17 23:44:43;;;;;;;;;;;-10.70;99.90;;;;;;5028383;28;20220;-70
2022/12/17 23:47:10;;;;;;;;;;;-10.60;99.90;;;;;;5047744;28;19929;-70
2022/12/17 23:49:38;;;;;;;;;;;-10.70;99.90;;;;;;5032608;28;19953;-70
2022/12/17 23:52:06;;;;;;;;;;;-10.70;99.90;;;;;;5040165;28;20267;-71
2022/12/17 23:54:32;;;;;;;;;;;-10.70;99.90;;;;;;5042547;28;19944;-70
2022/12/17 23:57:01;;;;;;;;;;;-10.70;99.90;;;;;;5031901;28;19985;-71
2022/12/17 23:59:28;;;;;;;;;;;-10.70;99.90;;;;;;5043492;28;19928;-71
